Time;durP1;ratioP1;P1;durP2;ratioP2;P2;SDS_P1;SDS_P2;PMS_P1;PMS_P2;Temp;Humidity;BMP_temperature;BMP_pressure;BME280_temperature;BME280_humidity;BME280_pressure;Samples;Min_cycle;Max_cycle;Signal;HPM_P1;HPM_P2
2023/09/24 00:00:58;;;;;;;0.00;0.00;;;11.10;99.90;;;;;;5087006;28;20617;-67
2023/09/24 00:03:26;;;;;;;0.00;0.00;;;11.10;99.90;;;;;;5092227;28;20172;-69
2023/09/24 00:05:54;;;;;;;0.00;0.00;;;11.10;99.90;;;;;;5092092;28;20214;-69
2023/09/24 00:08:21;;;;;;;0.00;0.00;;;11.00;99.90;;;;;;5092149;28;20167;-68
2023/09/24 00:10:52;;;;;;;0.00;0.00;;;11.00;99.90;;;;;;5091903;28;20172;-67
2023/09/24 00:13:19;;;;;;;0.00;0.00;;;11.00;99.90;;;;;;5092029;28;20172;-67
2023/09/24 00:15:45;;;;;;;0.00;0.00;;;11.00;99.90;;;;;;5091766;28;20176;-67
2023/09/24 00:18:10;;;;;;;0.00;0.00;;;10.90;99.90;;;;;;5091612;28;20184;-68
2023/09/24 00:20:36;;;;;;;0.00;0.00;;;10.90;99.90;;;;;;5091608;28;20602;-68
2023/09/24 00:23:01;;;;;;;0.00;0.00;;;10.90;99.90;;;;;;5091733;28;20164;-68
2023/09/24 00:25:28;;;;;;;0.00;0.00;;;10.80;99.90;;;;;;5091648;28;20275;-68
2023/09/24 00:27:54;;;;;;;0.00;0.00;;;10.80;99.90;;;;;;5091509;28;20188;-68
2023/09/24 00:30:20;;;;;;;0.00;0.00;;;10.80;99.90;;;;;;5091689;28;20241;-68
2023/09/24 00:32:45;;;;;;;0.00;0.00;;;10.70;99.90;;;;;;5091426;28;20651;-67
2023/09/24 00:35:11;;;;;;;0.00;0.00;;;10.70;99.90;;;;;;5091511;28;20342;-68
2023/09/24 00:37:37;;;;;;;0.00;0.00;;;10.60;99.90;;;;;;5091346;28;20231;-68
2023/09/24 00:40:03;;;;;;;0.05;0.05;;;10.60;99.90;;;;;;5091397;28;20215;-68
2023/09/24 00:42:28;;;;;;;0.00;0.00;;;10.50;99.90;;;;;;5091319;28;20670;-68
2023/09/24 00:44:55;;;;;;;0.00;0.00;;;10.50;99.90;;;;;;5091150;28;20200;-68
2023/09/24 00:47:22;;;;;;;0.00;0.00;;;10.50;99.90;;;;;;5091120;28;20198;-68
2023/09/24 00:49:48;;;;;;;0.00;0.00;;;10.50;99.90;;;;;;5091052;28;20175;-68
2023/09/24 00:52:14;;;;;;;0.00;0.00;;;10.50;99.90;;;;;;5091376;28;20184;-67
2023/09/24 00:54:41;;;;;;;0.00;0.00;;;10.50;99.90;;;;;;5091376;28;20164;-67
2023/09/24 00:57:06;;;;;;;0.00;0.00;;;10.50;99.90;;;;;;5091104;28;20236;-67
2023/09/24 00:59:32;;;;;;;0.00;0.00;;;10.50;99.90;;;;;;5089557;28;20212;-67
2023/09/24 01:01:58;;;;;;;0.00;0.00;;;10.50;99.90;;;;;;5090459;28;20195;-68
2023/09/24 01:04:24;;;;;;;0.00;0.00;;;10.50;99.90;;;;;;5090110;28;20159;-67
2023/09/24 01:06:50;;;;;;;0.00;0.00;;;10.40;99.90;;;;;;5090415;28;20176;-68
2023/09/24 01:09:21;;;;;;;0.00;0.00;;;10.40;99.90;;;;;;5090790;28;20188;-67
2023/09/24 01:11:49;;;;;;;0.00;0.00;;;10.40;99.90;;;;;;5090764;28;20646;-68
2023/09/24 01:14:15;;;;;;;0.00;0.00;;;10.40;99.90;;;;;;5090723;28;20215;-67
2023/09/24 01:16:40;;;;;;;0.00;0.00;;;10.40;99.90;;;;;;5090723;28;20245;-68
2023/09/24 01:19:06;;;;;;;0.10;0.10;;;10.40;99.90;;;;;;5090501;28;20345;-68
2023/09/24 01:21:32;;;;;;;0.00;0.00;;;10.40;99.90;;;;;;5090620;28;20238;-67
2023/09/24 01:23:59;;;;;;;0.00;0.00;;;10.40;99.90;;;;;;5090665;28;20229;-67
2023/09/24 01:26:25;;;;;;;0.00;0.00;;;10.30;99.90;;;;;;5090616;28;20172;-67
2023/09/24 01:28:51;;;;;;;0.00;0.00;;;10.40;99.90;;;;;;5090452;28;20176;-67
2023/09/24 01:31:20;;;;;;;0.05;0.05;;;10.30;99.90;;;;;;5090622;28;20172;-67
2023/09/24 01:33:49;;;;;;;0.00;0.00;;;10.30;99.90;;;;;;5090390;28;20208;-68
2023/09/24 01:36:15;;;;;;;0.00;0.00;;;10.30;99.90;;;;;;5090526;28;20183;-68
2023/09/24 01:38:41;;;;;;;0.00;0.00;;;10.20;99.90;;;;;;5090391;28;20207;-68
2023/09/24 01:41:10;;;;;;;0.00;0.00;;;10.20;99.90;;;;;;5090724;28;20547;-67
2023/09/24 01:43:37;;;;;;;0.00;0.00;;;10.20;99.90;;;;;;5090552;28;20635;-67
2023/09/24 01:46:06;;;;;;;0.00;0.00;;;10.20;99.90;;;;;;5090429;28;20241;-68
2023/09/24 01:48:35;;;;;;;0.00;0.00;;;10.10;99.90;;;;;;5090030;28;20180;-67
2023/09/24 01:51:07;;;;;;;0.00;0.00;;;10.10;99.90;;;;;;5090544;28;20234;-68
2023/09/24 01:53:34;;;;;;;0.00;0.00;;;10.10;99.90;;;;;;5090415;28;20271;-67
2023/09/24 01:56:01;;;;;;;0.00;0.00;;;10.00;99.90;;;;;;5090417;28;20180;-68
2023/09/24 01:58:27;;;;;;;0.00;0.00;;;10.00;99.90;;;;;;5090138;28;20187;-68
2023/09/24 02:00:52;;;;;;;0.00;0.00;;;9.90;99.90;;;;;;5090008;28;20719;-68
2023/09/24 02:03:18;;;;;;;0.00;0.00;;;9.90;99.90;;;;;;5090391;28;20214;-67
2023/09/24 02:05:44;;;;;;;0.00;0.00;;;9.90;99.90;;;;;;5090359;28;20207;-67
2023/09/24 02:08:10;;;;;;;0.00;0.00;;;9.90;99.90;;;;;;5090266;28;20180;-67
2023/09/24 02:10:40;;;;;;;0.00;0.00;;;9.90;99.90;;;;;;5074074;28;20256;-67
2023/09/24 02:13:07;;;;;;;0.00;0.00;;;9.80;99.90;;;;;;5094040;28;20196;-67
2023/09/24 02:15:33;;;;;;;0.00;0.00;;;9.80;99.90;;;;;;5093634;28;20179;-68
2023/09/24 02:17:59;;;;;;;0.00;0.00;;;9.80;99.90;;;;;;5094043;28;20192;-67
2023/09/24 02:20:27;;;;;;;0.00;0.00;;;9.80;99.90;;;;;;5093623;28;20184;-67
2023/09/24 02:22:57;;;;;;;0.00;0.00;;;9.80;99.90;;;;;;5093766;28;20234;-67
2023/09/24 02:25:30;;;;;;;0.00;0.00;;;9.80;99.90;;;;;;5093898;28;20212;-67
2023/09/24 02:27:57;;;;;;;0.00;0.00;;;9.80;99.90;;;;;;5093543;28;20643;-67
2023/09/24 02:30:25;;;;;;;0.00;0.00;;;9.80;99.90;;;;;;5093605;28;20637;-67
2023/09/24 02:32:51;;;;;;;0.00;0.00;;;9.80;99.90;;;;;;5093462;28;20183;-67
2023/09/24 02:35:17;;;;;;;0.00;0.00;;;9.70;99.90;;;;;;5093577;28;20180;-67
2023/09/24 02:37:47;;;;;;;0.00;0.00;;;9.70;99.90;;;;;;5093254;28;20224;-67
2023/09/24 02:43:09;;;;;;;0.00;0.00;;;9.70;99.90;;;;;;5082239;28;20195;-67
2023/09/24 02:45:34;;;;;;;0.00;0.00;;;9.70;99.90;;;;;;5092940;28;20195;-67
2023/09/24 02:48:00;;;;;;;0.00;0.00;;;9.70;99.90;;;;;;5093456;28;20190;-67
2023/09/24 02:50:27;;;;;;;0.00;0.00;;;9.60;99.90;;;;;;5093200;28;20221;-67
2023/09/24 02:53:03;;;;;;;0.20;0.20;;;9.60;99.90;;;;;;5093222;28;20176;-67
2023/09/24 02:55:29;;;;;;;0.00;0.00;;;9.60;99.90;;;;;;5093361;28;20538;-66
2023/09/24 02:57:55;;;;;;;0.00;0.00;;;9.50;99.90;;;;;;5093011;28;20191;-66
2023/09/24 03:00:41;;;;;;;0.00;0.00;;;9.50;99.90;;;;;;5092997;28;20218;-68
2023/09/24 03:03:09;;;;;;;0.00;0.00;;;9.50;99.90;;;;;;5093058;28;20681;-68
2023/09/24 03:05:34;;;;;;;0.00;0.00;;;9.50;99.90;;;;;;5093014;28;20216;-67
2023/09/24 03:08:02;;;;;;;0.00;0.00;;;9.50;99.90;;;;;;5093084;28;20221;-67
2023/09/24 03:10:30;;;;;;;0.00;0.00;;;9.50;99.90;;;;;;5092525;28;20691;-66
2023/09/24 03:12:57;;;;;;;0.00;0.00;;;9.50;99.90;;;;;;5092824;28;20188;-67
2023/09/24 03:15:23;;;;;;;0.00;0.00;;;9.50;99.90;;;;;;5092637;28;20172;-67
2023/09/24 03:17:49;;;;;;;0.00;0.00;;;9.50;99.90;;;;;;5092722;28;20184;-67
2023/09/24 03:20:19;;;;;;;0.00;0.00;;;9.50;99.90;;;;;;5092820;28;20179;-67
2023/09/24 03:22:50;;;;;;;0.00;0.00;;;9.60;99.90;;;;;;5074198;28;20604;-67
2023/09/24 03:25:20;;;;;;;0.00;0.00;;;9.50;99.90;;;;;;5092416;28;20184;-67
2023/09/24 03:27:47;;;;;;;0.00;0.00;;;9.50;99.90;;;;;;5092679;28;20164;-67
2023/09/24 03:30:17;;;;;;;0.00;0.00;;;9.50;99.90;;;;;;5092173;28;20223;-67
2023/09/24 03:32:43;;;;;;;0.00;0.00;;;9.40;99.90;;;;;;5091263;28;20701;-67
2023/09/24 03:35:09;;;;;;;0.00;0.00;;;9.50;99.90;;;;;;5091410;28;20223;-67
2023/09/24 03:37:40;;;;;;;0.00;0.00;;;9.40;99.90;;;;;;5092361;28;20216;-68
2023/09/24 03:40:10;;;;;;;0.00;0.00;;;9.40;99.90;;;;;;5092207;28;20240;-68
2023/09/24 03:42:37;;;;;;;0.00;0.00;;;9.40;99.90;;;;;;5092163;28;20568;-68
2023/09/24 03:45:04;;;;;;;0.00;0.00;;;9.40;99.90;;;;;;5090888;28;20187;-68
2023/09/24 03:47:30;;;;;;;0.00;0.00;;;9.30;99.90;;;;;;5092213;28;20168;-68
2023/09/24 03:49:56;;;;;;;0.00;0.00;;;9.20;99.90;;;;;;5092154;28;20544;-68
2023/09/24 03:52:21;;;;;;;0.00;0.00;;;9.20;99.90;;;;;;5092150;28;20258;-68
2023/09/24 03:54:47;;;;;;;0.00;0.00;;;9.20;99.90;;;;;;5091741;28;20173;-68
2023/09/24 03:57:12;;;;;;;0.00;0.00;;;9.20;99.90;;;;;;5091812;28;20580;-68
2023/09/24 03:59:37;;;;;;;0.00;0.00;;;9.20;99.90;;;;;;5092093;28;20254;-68
2023/09/24 04:02:07;;;;;;;0.00;0.00;;;9.10;99.90;;;;;;5092058;28;20180;-68
2023/09/24 04:04:35;;;;;;;0.00;0.00;;;9.10;99.90;;;;;;5091777;28;20180;-68
2023/09/24 04:07:02;;;;;;;0.35;0.35;;;9.10;99.90;;;;;;5090781;28;20818;-68
2023/09/24 04:09:32;;;;;;;0.00;0.00;;;9.10;99.90;;;;;;5091771;28;20207;-69
2023/09/24 04:12:01;;;;;;;0.00;0.00;;;9.10;99.90;;;;;;5090720;28;20184;-68
2023/09/24 04:14:26;;;;;;;0.00;0.00;;;9.10;99.90;;;;;;5091661;28;20503;-69
2023/09/24 04:16:52;;;;;;;0.03;0.03;;;9.10;99.90;;;;;;5091329;28;20191;-68
2023/09/24 04:19:18;;;;;;;0.00;0.00;;;9.10;99.90;;;;;;5091855;28;20232;-68
2023/09/24 04:21:45;;;;;;;0.10;0.10;;;9.10;99.90;;;;;;5091691;28;20545;-67
2023/09/24 04:24:11;;;;;;;0.00;0.00;;;9.10;99.90;;;;;;5091312;28;20180;-68
2023/09/24 04:26:37;;;;;;;0.00;0.00;;;9.10;99.90;;;;;;5091410;28;20282;-68
2023/09/24 04:29:02;;;;;;;0.00;0.00;;;9.00;99.90;;;;;;5091007;28;20271;-68
2023/09/24 04:31:28;;;;;;;0.00;0.00;;;9.00;99.90;;;;;;5091445;28;20213;-68
2023/09/24 04:33:53;;;;;;;0.00;0.00;;;9.00;99.90;;;;;;5091240;28;20681;-67
2023/09/24 04:36:19;;;;;;;0.00;0.00;;;8.90;99.90;;;;;;5091591;28;20703;-68
2023/09/24 04:38:46;;;;;;;0.00;0.00;;;8.90;99.90;;;;;;5090970;28;20307;-68
2023/09/24 04:41:12;;;;;;;0.00;0.00;;;8.80;99.90;;;;;;5091467;28;20545;-68
2023/09/24 04:43:38;;;;;;;0.00;0.00;;;8.80;99.90;;;;;;5091472;28;20217;-67
2023/09/24 04:46:04;;;;;;;0.00;0.00;;;8.80;99.90;;;;;;5091442;28;20176;-68
2023/09/24 04:48:34;;;;;;;0.30;0.30;;;8.80;99.90;;;;;;5090543;28;20538;-68
2023/09/24 04:51:00;;;;;;;0.47;0.47;;;8.80;99.90;;;;;;5090846;28;20215;-68
2023/09/24 04:53:25;;;;;;;0.00;0.00;;;8.90;99.90;;;;;;5090914;28;20247;-68
2023/09/24 04:55:51;;;;;;;0.00;0.00;;;8.90;99.90;;;;;;5090958;28;20180;-68
2023/09/24 04:58:16;;;;;;;0.00;0.00;;;8.80;99.90;;;;;;5089983;28;20762;-69
2023/09/24 05:00:42;;;;;;;0.00;0.00;;;8.80;99.90;;;;;;5090708;28;20180;-68
2023/09/24 05:03:07;;;;;;;0.00;0.00;;;8.80;99.90;;;;;;5086587;28;20241;-69
2023/09/24 05:05:33;;;;;;;0.00;0.00;;;8.70;99.90;;;;;;5090744;28;20176;-68
2023/09/24 05:07:59;;;;;;;0.00;0.00;;;8.70;99.90;;;;;;5090860;28;20180;-68
2023/09/24 05:10:25;;;;;;;0.00;0.00;;;8.70;99.90;;;;;;5090884;28;20210;-67
2023/09/24 05:12:50;;;;;;;0.00;0.00;;;8.70;99.90;;;;;;5090865;28;20172;-68
2023/09/24 05:15:16;;;;;;;0.00;0.00;;;8.70;99.90;;;;;;5090903;28;20172;-68
2023/09/24 05:17:42;;;;;;;0.00;0.00;;;8.70;99.90;;;;;;5089383;28;20278;-68
2023/09/24 05:20:08;;;;;;;0.00;0.00;;;8.70;99.90;;;;;;5089860;28;20579;-67
2023/09/24 05:22:34;;;;;;;0.00;0.00;;;8.70;99.90;;;;;;5090471;28;20258;-69
2023/09/24 05:24:59;;;;;;;0.00;0.00;;;8.70;99.90;;;;;;5090228;28;20228;-68
2023/09/24 05:27:29;;;;;;;0.00;0.00;;;8.70;99.90;;;;;;5090565;28;20191;-68
2023/09/24 05:29:54;;;;;;;0.00;0.00;;;8.70;99.90;;;;;;5090682;28;20215;-68
2023/09/24 05:32:20;;;;;;;0.03;0.03;;;8.70;99.90;;;;;;5089908;28;20180;-68
2023/09/24 05:34:51;;;;;;;0.00;0.00;;;8.70;99.90;;;;;;5090035;28;20184;-67
2023/09/24 05:37:17;;;;;;;0.00;0.00;;;8.70;99.90;;;;;;5090071;28;20218;-67
2023/09/24 05:39:42;;;;;;;0.00;0.00;;;8.80;99.90;;;;;;5090670;28;20176;-67
2023/09/24 05:42:08;;;;;;;0.00;0.00;;;8.70;99.90;;;;;;5090772;28;20188;-68
2023/09/24 05:44:33;;;;;;;0.00;0.00;;;8.80;99.90;;;;;;5090515;28;20187;-68
2023/09/24 05:46:59;;;;;;;0.00;0.00;;;8.80;99.90;;;;;;5092559;28;20187;-68
2023/09/24 05:49:25;;;;;;;0.00;0.00;;;8.80;99.90;;;;;;5093714;28;20745;-68
2023/09/24 05:51:51;;;;;;;0.00;0.00;;;8.90;99.90;;;;;;5094186;28;20291;-68
2023/09/24 05:54:16;;;;;;;0.00;0.00;;;8.90;99.90;;;;;;5094313;28;20579;-68
2023/09/24 05:56:43;;;;;;;0.00;0.00;;;8.90;99.90;;;;;;5094031;28;20181;-68
2023/09/24 05:59:08;;;;;;;0.00;0.00;;;9.00;99.90;;;;;;5094183;28;20176;-69
2023/09/24 06:01:34;;;;;;;0.00;0.00;;;9.00;99.90;;;;;;5093986;28;20184;-67
2023/09/24 06:03:59;;;;;;;0.00;0.00;;;9.10;99.90;;;;;;5093622;28;20221;-67
2023/09/24 06:06:25;;;;;;;0.00;0.00;;;9.10;99.90;;;;;;5094001;28;20248;-69
2023/09/24 06:08:53;;;;;;;0.00;0.00;;;9.10;99.90;;;;;;5093789;28;20746;-68
2023/09/24 06:11:18;;;;;;;0.00;0.00;;;9.20;99.90;;;;;;5093886;28;20191;-68
2023/09/24 06:13:44;;;;;;;0.00;0.00;;;9.20;99.90;;;;;;5094002;28;20654;-67
2023/09/24 06:16:10;;;;;;;0.00;0.00;;;9.30;99.90;;;;;;5093913;28;20184;-67
2023/09/24 06:18:35;;;;;;;0.00;0.00;;;9.40;99.90;;;;;;5104055;28;20171;-67
2023/09/24 06:21:04;;;;;;;0.30;0.30;;;9.60;99.90;;;;;;5098177;28;20168;-67
2023/09/24 06:23:30;;;;;;;0.00;0.00;;;9.80;99.90;;;;;;5092635;28;20651;-67
2023/09/24 06:25:59;;;;;;;0.00;0.00;;;10.10;99.90;;;;;;5093718;28;20180;-68
2023/09/24 06:28:25;;;;;;;0.00;0.00;;;10.50;99.90;;;;;;5093387;28;20674;-67
2023/09/24 06:31:10;;;;;;;0.00;0.00;;;11.00;99.90;;;;;;5093493;28;20225;-68
2023/09/24 06:33:36;;;;;;;0.00;0.00;;;11.50;99.90;;;;;;5093048;28;20192;-68
2023/09/24 06:36:03;;;;;;;0.00;0.00;;;12.00;99.90;;;;;;5094107;28;20535;-67
2023/09/24 06:38:29;;;;;;;0.00;0.00;;;12.40;99.90;;;;;;5092988;28;20314;-67
2023/09/24 06:41:04;;;;;;;0.00;0.00;;;12.90;99.90;;;;;;5093224;28;20277;-68
2023/09/24 06:43:31;;;;;;;0.00;0.00;;;13.40;99.90;;;;;;5092941;28;20267;-68
2023/09/24 06:45:57;;;;;;;0.00;0.00;;;13.80;99.90;;;;;;5093157;28;20176;-66
2023/09/24 06:48:23;;;;;;;0.00;0.00;;;14.20;99.90;;;;;;5093148;28;20180;-66
2023/09/24 06:50:49;;;;;;;0.00;0.00;;;14.60;99.90;;;;;;5092796;28;20218;-65
2023/09/24 06:53:15;;;;;;;0.00;0.00;;;15.00;99.90;;;;;;5093406;28;20290;-67
2023/09/24 06:55:41;;;;;;;0.00;0.00;;;15.30;99.90;;;;;;5101892;28;20635;-63
2023/09/24 06:58:07;;;;;;;0.00;0.00;;;15.60;99.90;;;;;;5105824;28;20172;-63
2023/09/24 07:00:32;;;;;;;0.00;0.00;;;15.80;99.90;;;;;;5095818;28;20175;-63
2023/09/24 07:02:58;;;;;;;0.00;0.00;;;16.20;99.90;;;;;;5099994;28;20203;-64
2023/09/24 07:05:24;;;;;;;0.00;0.00;;;16.50;99.90;;;;;;5092620;28;20646;-62
2023/09/24 07:07:49;;;;;;;0.00;0.00;;;16.70;99.90;;;;;;5092205;28;20215;-64
2023/09/24 07:10:15;;;;;;;0.00;0.00;;;17.00;99.90;;;;;;5092521;28;20265;-62
2023/09/24 07:12:42;;;;;;;0.00;0.00;;;17.40;99.90;;;;;;5092361;28;20168;-63
2023/09/24 07:15:09;;;;;;;0.00;0.00;;;17.80;99.90;;;;;;5092453;28;20184;-64
2023/09/24 07:17:35;;;;;;;0.00;0.00;;;18.00;99.90;;;;;;5092812;28;20179;-63
2023/09/24 07:20:01;;;;;;;0.00;0.00;;;18.30;99.60;;;;;;5092729;28;20191;-61
2023/09/24 07:22:26;;;;;;;0.00;0.00;;;18.60;99.30;;;;;;5092719;28;20172;-62
2023/09/24 07:24:55;;;;;;;0.00;0.00;;;18.70;99.10;;;;;;5092470;28;20203;-61
2023/09/24 07:27:21;;;;;;;0.00;0.00;;;18.90;98.80;;;;;;5092121;28;20524;-63
2023/09/24 07:29:47;;;;;;;0.00;0.00;;;19.40;98.20;;;;;;5099570;28;20218;-64
2023/09/24 07:32:14;;;;;;;0.00;0.00;;;19.80;97.50;;;;;;5092536;28;20700;-63
2023/09/24 07:34:39;;;;;;;0.00;0.00;;;20.00;97.30;;;;;;5092891;28;20204;-63
2023/09/24 07:37:08;;;;;;;0.00;0.00;;;20.30;96.60;;;;;;5092300;28;20308;-63
2023/09/24 07:39:34;;;;;;;0.00;0.00;;;20.60;96.20;;;;;;5092407;28;20199;-63
2023/09/24 07:42:00;;;;;;;0.00;0.00;;;20.90;95.70;;;;;;5092372;28;21160;-63
2023/09/24 07:44:26;;;;;;;0.00;0.00;;;21.20;95.30;;;;;;5092252;28;20843;-63
2023/09/24 07:46:52;;;;;;;0.00;0.00;;;21.40;94.60;;;;;;5092095;28;20208;-63
2023/09/24 07:49:18;;;;;;;0.00;0.00;;;21.50;94.60;;;;;;5092197;28;20200;-63
2023/09/24 07:51:44;;;;;;;0.00;0.00;;;21.70;94.30;;;;;;5092078;28;20257;-63
2023/09/24 07:54:09;;;;;;;0.00;0.00;;;21.90;93.70;;;;;;5092193;28;20545;-63
2023/09/24 07:56:38;;;;;;;0.10;0.10;;;22.00;93.90;;;;;;5092115;28;20180;-63
2023/09/24 07:59:04;;;;;;;0.00;0.00;;;22.40;93.20;;;;;;5092160;28;20226;-63
2023/09/24 08:01:30;;;;;;;0.00;0.00;;;22.60;93.00;;;;;;5091651;28;20264;-63
2023/09/24 08:03:55;;;;;;;0.00;0.00;;;22.80;92.40;;;;;;5091951;28;20259;-62
2023/09/24 08:06:21;;;;;;;0.00;0.00;;;23.00;92.20;;;;;;5091990;28;20184;-62
2023/09/24 08:08:46;;;;;;;0.00;0.00;;;23.20;92.00;;;;;;5091641;28;20200;-62
2023/09/24 08:11:12;;;;;;;0.00;0.00;;;23.30;91.40;;;;;;5092824;28;20208;-64
2023/09/24 08:13:37;;;;;;;0.00;0.00;;;23.30;91.50;;;;;;5091694;28;20196;-62
2023/09/24 08:16:03;;;;;;;0.00;0.00;;;23.50;91.10;;;;;;5091720;28;20560;-62
2023/09/24 08:18:29;;;;;;;0.00;0.00;;;23.60;91.00;;;;;;5091601;28;20229;-62
2023/09/24 08:20:55;;;;;;;0.00;0.00;;;23.80;90.10;;;;;;5091605;28;20180;-62
2023/09/24 08:23:21;;;;;;;0.00;0.00;;;23.80;89.70;;;;;;5091680;28;20175;-62
2023/09/24 08:25:50;;;;;;;0.00;0.00;;;23.80;89.00;;;;;;5091452;28;20179;-63
2023/09/24 08:28:15;;;;;;;0.00;0.00;;;23.80;88.90;;;;;;5092682;28;20192;-62
2023/09/24 08:30:41;;;;;;;0.00;0.00;;;23.90;87.60;;;;;;5111745;28;20214;-62
2023/09/24 08:33:08;;;;;;;0.00;0.00;;;23.90;88.10;;;;;;5111809;28;20250;-62
2023/09/24 08:35:36;;;;;;;0.00;0.00;;;24.00;88.60;;;;;;5111833;28;20209;-63
2023/09/24 08:38:02;;;;;;;0.20;0.20;;;24.10;88.40;;;;;;5103475;28;20265;-61
2023/09/24 08:40:30;;;;;;;0.00;0.00;;;24.10;86.60;;;;;;5091219;28;20176;-63
2023/09/24 08:42:56;;;;;;;0.00;0.00;;;24.20;87.90;;;;;;5091111;28;20206;-62
2023/09/24 08:45:26;;;;;;;0.00;0.00;;;24.30;86.20;;;;;;5091259;28;20176;-61
2023/09/24 08:47:52;;;;;;;0.00;0.00;;;24.30;83.50;;;;;;5091028;28;20176;-62
2023/09/24 08:50:18;;;;;;;0.00;0.00;;;24.30;84.00;;;;;;5091070;28;20272;-62
2023/09/24 08:52:45;;;;;;;0.00;0.00;;;24.30;86.40;;;;;;5091166;28;20172;-62
2023/09/24 08:55:13;;;;;;;0.00;0.00;;;24.40;85.50;;;;;;5089763;28;20179;-63
2023/09/24 08:57:45;;;;;;;0.00;0.00;;;24.40;83.90;;;;;;5091157;28;20206;-63
2023/09/24 09:00:14;;;;;;;0.00;0.00;;;24.40;85.30;;;;;;5091131;28;20234;-63
2023/09/24 09:02:41;;;;;;;0.00;0.00;;;24.40;85.10;;;;;;5097267;28;20175;-63
2023/09/24 09:05:21;;;;;;;0.00;0.00;;;24.40;85.10;;;;;;5094881;28;20199;-63
2023/09/24 09:07:58;;;;;;;0.00;0.00;;;24.30;84.50;;;;;;5090796;28;20663;-63
2023/09/24 09:10:35;;;;;;;0.00;0.00;;;24.30;83.60;;;;;;5090938;28;20219;-64
2023/09/24 09:13:24;;;;;;;0.10;0.10;;;24.40;84.10;;;;;;5090563;28;20192;-63
2023/09/24 09:16:08;;;;;;;0.00;0.00;;;24.40;84.00;;;;;;5090742;28;20180;-63
2023/09/24 09:18:35;;;;;;;0.00;0.00;;;24.30;84.40;;;;;;5090816;28;20160;-64
2023/09/24 09:21:00;;;;;;;0.00;0.00;;;24.20;84.90;;;;;;5091427;28;20213;-63
2023/09/24 09:23:31;;;;;;;0.00;0.00;;;24.20;83.60;;;;;;5095237;28;20184;-65
2023/09/24 09:25:57;;;;;;;0.00;0.00;;;24.20;84.80;;;;;;5094369;28;20188;-64
2023/09/24 09:28:28;;;;;;;0.00;0.00;;;24.00;83.10;;;;;;5094034;28;20622;-64
2023/09/24 09:31:05;;;;;;;0.00;0.00;;;23.90;84.40;;;;;;5091111;28;20563;-64
2023/09/24 09:33:42;;;;;;;0.00;0.00;;;23.90;86.90;;;;;;5094391;28;20172;-64
2023/09/24 09:36:30;;;;;;;0.00;0.00;;;24.00;87.10;;;;;;5095546;28;20184;-64
2023/09/24 09:39:00;;;;;;;0.00;0.00;;;24.10;86.30;;;;;;5115066;28;20259;-64
2023/09/24 09:41:26;;;;;;;0.00;0.00;;;24.10;83.60;;;;;;5103359;28;20174;-63
2023/09/24 09:43:53;;;;;;;0.00;0.00;;;24.10;83.20;;;;;;5094371;28;20187;-63
2023/09/24 09:46:23;;;;;;;0.00;0.00;;;23.90;84.40;;;;;;5094167;28;20182;-62
2023/09/24 09:49:10;;;;;;;0.00;0.00;;;23.90;82.10;;;;;;5094577;28;20191;-63
2023/09/24 09:51:46;;;;;;;0.10;0.10;;;23.40;81.10;;;;;;5092584;28;20237;-64
2023/09/24 09:54:13;;;;;;;0.00;0.00;;;23.20;85.50;;;;;;5093349;28;20373;-64
2023/09/24 09:56:40;;;;;;;0.00;0.00;;;23.40;88.50;;;;;;5094227;28;20191;-64
2023/09/24 09:59:07;;;;;;;0.00;0.00;;;23.50;82.80;;;;;;5094122;28;20199;-63
2023/09/24 10:01:33;;;;;;;0.00;0.00;;;23.40;82.10;;;;;;5094070;28;20188;-63
2023/09/24 10:04:03;;;;;;;0.00;0.00;;;23.50;83.10;;;;;;5094286;28;20168;-63
2023/09/24 10:06:34;;;;;;;0.00;0.00;;;23.70;83.50;;;;;;5094494;28;20183;-64
2023/09/24 10:09:00;;;;;;;0.00;0.00;;;23.80;84.10;;;;;;5093967;28;20202;-63
2023/09/24 10:11:32;;;;;;;0.00;0.00;;;23.90;82.00;;;;;;5094081;28;20198;-63
2023/09/24 10:14:04;;;;;;;0.00;0.00;;;23.80;81.50;;;;;;5093546;28;20180;-63
2023/09/24 10:16:31;;;;;;;0.00;0.00;;;23.80;81.50;;;;;;5093894;28;20188;-64
2023/09/24 10:19:08;;;;;;;0.00;0.00;;;23.70;81.70;;;;;;5093780;28;20635;-62
2023/09/24 10:21:37;;;;;;;0.00;0.00;;;23.70;82.30;;;;;;5093587;28;20179;-63
2023/09/24 10:24:12;;;;;;;0.00;0.00;;;23.70;80.80;;;;;;5093574;28;20226;-63
2023/09/24 10:26:50;;;;;;;0.00;0.00;;;23.70;80.70;;;;;;5093771;28;20175;-63
2023/09/24 10:29:17;;;;;;;0.00;0.00;;;23.60;80.10;;;;;;5093651;28;20180;-63
2023/09/24 10:32:04;;;;;;;0.08;0.08;;;23.50;79.10;;;;;;5093261;28;20533;-63
2023/09/24 10:34:55;;;;;;;0.00;0.00;;;23.50;78.50;;;;;;5093064;28;20263;-63
2023/09/24 10:37:23;;;;;;;0.00;0.00;;;23.60;80.10;;;;;;5092918;28;20519;-63
2023/09/24 10:39:58;;;;;;;0.00;0.00;;;23.80;79.30;;;;;;5092172;28;20176;-63
2023/09/24 10:42:23;;;;;;;0.00;0.00;;;24.00;79.50;;;;;;5093469;28;20171;-63
2023/09/24 10:45:10;;;;;;;0.00;0.00;;;24.20;80.40;;;;;;5093197;28;20178;-63
2023/09/24 10:47:40;;;;;;;0.00;0.00;;;24.30;76.60;;;;;;5092835;28;20650;-63
2023/09/24 10:50:13;;;;;;;0.00;0.00;;;24.40;76.40;;;;;;5093205;28;20295;-63
2023/09/24 10:52:55;;;;;;;0.00;0.00;;;24.20;74.30;;;;;;5093051;28;20176;-63
2023/09/24 10:55:30;;;;;;;0.00;0.00;;;24.10;75.10;;;;;;5093074;28;20186;-62
2023/09/24 10:58:08;;;;;;;0.00;0.00;;;24.10;72.50;;;;;;5092859;28;20187;-62
2023/09/24 11:00:35;;;;;;;0.00;0.00;;;24.10;72.70;;;;;;5092754;28;20176;-63
2023/09/24 11:03:05;;;;;;;0.00;0.00;;;24.20;71.80;;;;;;5092808;28;20192;-63
2023/09/24 11:05:50;;;;;;;0.00;0.00;;;24.30;68.80;;;;;;5093100;28;20218;-64
2023/09/24 11:08:18;;;;;;;0.00;0.00;;;24.10;68.00;;;;;;5093178;28;20179;-64
2023/09/24 11:10:48;;;;;;;0.00;0.00;;;24.10;66.80;;;;;;5093013;28;20215;-64
2023/09/24 11:13:14;;;;;;;0.00;0.00;;;24.00;67.40;;;;;;5093004;28;20176;-64
2023/09/24 11:15:40;;;;;;;0.00;0.00;;;24.10;68.60;;;;;;5092753;28;20172;-64
2023/09/24 11:18:06;;;;;;;0.00;0.00;;;23.90;67.80;;;;;;5093064;28;20179;-64
2023/09/24 11:20:34;;;;;;;0.00;0.00;;;23.90;68.40;;;;;;5092942;28;20180;-64
2023/09/24 11:23:11;;;;;;;0.00;0.00;;;23.90;68.10;;;;;;5092515;28;20251;-64
2023/09/24 11:25:37;;;;;;;0.00;0.00;;;23.80;68.90;;;;;;5092501;28;20195;-64
2023/09/24 11:28:04;;;;;;;0.00;0.00;;;23.90;68.30;;;;;;5092791;28;20187;-64
2023/09/24 11:30:47;;;;;;;0.00;0.00;;;24.00;67.10;;;;;;5092580;28;20216;-63
2023/09/24 11:33:23;;;;;;;0.00;0.00;;;24.00;67.10;;;;;;5092619;28;20184;-63
2023/09/24 11:35:51;;;;;;;0.00;0.00;;;23.80;66.80;;;;;;5092174;28;20270;-64
2023/09/24 11:38:34;;;;;;;0.00;0.00;;;23.80;67.40;;;;;;5091904;28;20223;-65
2023/09/24 11:41:09;;;;;;;0.00;0.00;;;23.90;66.60;;;;;;5091941;28;20183;-64
2023/09/24 11:43:36;;;;;;;0.00;0.00;;;24.10;66.80;;;;;;5091737;28;20180;-63
2023/09/24 11:46:13;;;;;;;0.00;0.00;;;24.20;66.40;;;;;;5091829;28;20184;-63
2023/09/24 11:48:38;;;;;;;0.00;0.00;;;24.20;67.40;;;;;;5084304;28;20256;-63
2023/09/24 11:51:04;;;;;;;0.00;0.00;;;24.30;67.40;;;;;;5091941;28;20674;-63
2023/09/24 11:53:30;;;;;;;0.00;0.00;;;24.00;67.60;;;;;;5104430;28;20682;-63
2023/09/24 11:55:57;;;;;;;0.00;0.00;;;24.10;67.80;;;;;;5112507;28;20607;-63
2023/09/24 11:58:26;;;;;;;0.00;0.00;;;24.10;67.50;;;;;;5090688;28;20176;-63
2023/09/24 12:00:53;;;;;;;0.00;0.00;;;23.90;67.60;;;;;;5091566;28;20214;-64
2023/09/24 12:03:20;;;;;;;0.03;0.03;;;23.60;67.70;;;;;;5090728;28;20180;-63
2023/09/24 12:05:47;;;;;;;0.00;0.00;;;23.30;67.80;;;;;;5092002;28;20526;-64
2023/09/24 12:08:12;;;;;;;0.00;0.00;;;23.30;68.90;;;;;;5094893;28;20204;-63
2023/09/24 12:10:40;;;;;;;0.00;0.00;;;23.20;69.70;;;;;;5092035;28;20250;-63
2023/09/24 12:13:06;;;;;;;0.00;0.00;;;23.20;69.60;;;;;;5090514;28;20176;-64
2023/09/24 12:15:32;;;;;;;0.10;0.00;;;23.20;69.60;;;;;;5091970;28;20180;-64
2023/09/24 12:18:00;;;;;;;0.00;0.00;;;23.30;69.30;;;;;;5090927;28;20271;-63
2023/09/24 12:20:26;;;;;;;0.00;0.00;;;23.40;68.20;;;;;;5091929;28;20184;-63
2023/09/24 12:22:52;;;;;;;0.00;0.00;;;23.30;65.90;;;;;;5091448;28;20172;-63
2023/09/24 12:25:18;;;;;;;0.00;0.00;;;23.20;64.80;;;;;;5086656;28;20220;-64
2023/09/24 12:27:44;;;;;;;0.00;0.00;;;23.00;62.10;;;;;;5091632;28;20176;-64
2023/09/24 12:30:11;;;;;;;0.00;0.00;;;22.80;61.10;;;;;;5091419;28;20674;-63
2023/09/24 12:32:38;;;;;;;0.00;0.00;;;22.70;60.60;;;;;;5091647;28;20188;-64
2023/09/24 12:35:07;;;;;;;0.00;0.00;;;22.60;57.60;;;;;;5088938;28;20218;-63
2023/09/24 12:37:34;;;;;;;0.03;0.03;;;22.60;57.50;;;;;;5091366;28;20256;-64
2023/09/24 12:40:00;;;;;;;0.00;0.00;;;22.70;58.80;;;;;;5090928;28;20267;-64
2023/09/24 12:42:30;;;;;;;0.00;0.00;;;22.70;57.90;;;;;;5091517;28;20510;-64
2023/09/24 12:44:57;;;;;;;0.00;0.00;;;22.80;59.10;;;;;;5091511;28;20172;-65
2023/09/24 12:47:22;;;;;;;0.00;0.00;;;22.90;58.80;;;;;;5091902;28;20200;-63
2023/09/24 12:49:48;;;;;;;0.00;0.00;;;22.70;61.40;;;;;;5089991;28;20297;-64
2023/09/24 12:52:13;;;;;;;0.00;0.00;;;22.70;63.10;;;;;;5091002;28;20180;-64
2023/09/24 12:54:39;;;;;;;0.00;0.00;;;22.90;64.00;;;;;;5091264;28;20176;-64
2023/09/24 12:57:05;;;;;;;0.00;0.00;;;22.90;62.80;;;;;;5091215;28;20503;-64